sensor_id;sensor_type;location;lat;lon;timestamp;temperature;humidity
9808;DHT22;4943;52.550;13.462;2022-08-20T00:00:22;23.90;99.90
9808;DHT22;4943;52.550;13.462;2022-08-20T00:02:52;23.90;99.90
9808;DHT22;4943;52.550;13.462;2022-08-20T00:05:26;23.80;99.90
9808;DHT22;4943;52.550;13.462;2022-08-20T00:07:55;23.80;99.90
9808;DHT22;4943;52.550;13.462;2022-08-20T00:10:25;23.70;99.90
9808;DHT22;4943;52.550;13.462;2022-08-20T00:12:54;23.70;99.90
9808;DHT22;4943;52.550;13.462;2022-08-20T00:15:26;23.60;99.90
9808;DHT22;4943;52.550;13.462;2022-08-20T00:17:55;23.60;99.90
9808;DHT22;4943;52.550;13.462;2022-08-20T00:20:28;23.60;99.90
9808;DHT22;4943;52.550;13.462;2022-08-20T00:22:57;23.60;99.90
9808;DHT22;4943;52.550;13.462;2022-08-20T00:25:26;23.70;99.90
9808;DHT22;4943;52.550;13.462;2022-08-20T00:27:56;23.60;99.90
9808;DHT22;4943;52.550;13.462;2022-08-20T00:30:26;23.60;99.90
9808;DHT22;4943;52.550;13.462;2022-08-20T00:32:56;23.60;99.90
9808;DHT22;4943;52.550;13.462;2022-08-20T00:35:29;23.60;99.90
9808;DHT22;4943;52.550;13.462;2022-08-20T00:37:58;23.50;99.90
9808;DHT22;4943;52.550;13.462;2022-08-20T00:40:28;23.50;99.90
9808;DHT22;4943;52.550;13.462;2022-08-20T00:42:59;23.50;99.90
9808;DHT22;4943;52.550;13.462;2022-08-20T00:45:30;23.40;99.90
9808;DHT22;4943;52.550;13.462;2022-08-20T00:47:59;23.40;99.90
9808;DHT22;4943;52.550;13.462;2022-08-20T00:50:32;23.40;99.90
9808;DHT22;4943;52.550;13.462;2022-08-20T00:53:03;23.40;99.90
9808;DHT22;4943;52.550;13.462;2022-08-20T00:55:34;23.30;99.90
9808;DHT22;4943;52.550;13.462;2022-08-20T00:58:05;23.30;99.90
9808;DHT22;4943;52.550;13.462;2022-08-20T01:00:37;23.30;99.90
9808;DHT22;4943;52.550;13.462;2022-08-20T01:03:08;23.30;99.90
9808;DHT22;4943;52.550;13.462;2022-08-20T01:05:42;23.30;99.90
9808;DHT22;4943;52.550;13.462;2022-08-20T01:08:11;23.30;99.90
9808;DHT22;4943;52.550;13.462;2022-08-20T01:10:41;23.30;99.90
9808;DHT22;4943;52.550;13.462;2022-08-20T01:13:15;23.30;99.90
9808;DHT22;4943;52.550;13.462;2022-08-20T01:15:45;23.30;99.90
9808;DHT22;4943;52.550;13.462;2022-08-20T01:18:17;23.20;99.90
9808;DHT22;4943;52.550;13.462;2022-08-20T01:20:49;23.20;99.90
9808;DHT22;4943;52.550;13.462;2022-08-20T01:23:23;23.20;99.90
9808;DHT22;4943;52.550;13.462;2022-08-20T01:26:03;23.20;99.90
9808;DHT22;4943;52.550;13.462;2022-08-20T01:28:37;23.20;99.90
9808;DHT22;4943;52.550;13.462;2022-08-20T01:31:07;23.20;99.90
9808;DHT22;4943;52.550;13.462;2022-08-20T01:33:36;23.20;99.90
9808;DHT22;4943;52.550;13.462;2022-08-20T01:36:08;23.20;99.90
9808;DHT22;4943;52.550;13.462;2022-08-20T01:38:39;23.20;99.90
9808;DHT22;4943;52.550;13.462;2022-08-20T01:41:31;23.20;99.90
9808;DHT22;4943;52.550;13.462;2022-08-20T01:44:01;23.20;99.90
9808;DHT22;4943;52.550;13.462;2022-08-20T01:46:34;23.10;99.90
9808;DHT22;4943;52.550;13.462;2022-08-20T01:49:12;23.20;99.90
9808;DHT22;4943;52.550;13.462;2022-08-20T01:51:49;23.20;99.90
9808;DHT22;4943;52.550;13.462;2022-08-20T01:54:18;23.10;99.90
9808;DHT22;4943;52.550;13.462;2022-08-20T01:56:54;23.10;99.90
9808;DHT22;4943;52.550;13.462;2022-08-20T01:59:23;23.10;99.90
9808;DHT22;4943;52.550;13.462;2022-08-20T02:01:51;23.10;99.90
9808;DHT22;4943;52.550;13.462;2022-08-20T02:04:20;23.10;99.90
9808;DHT22;4943;52.550;13.462;2022-08-20T02:06:50;23.10;99.90
9808;DHT22;4943;52.550;13.462;2022-08-20T02:09:24;23.10;99.90
9808;DHT22;4943;52.550;13.462;2022-08-20T02:11:54;23.10;99.90
9808;DHT22;4943;52.550;13.462;2022-08-20T02:14:24;23.10;99.90
9808;DHT22;4943;52.550;13.462;2022-08-20T02:16:52;23.10;99.90
9808;DHT22;4943;52.550;13.462;2022-08-20T02:19:24;23.00;99.90
9808;DHT22;4943;52.550;13.462;2022-08-20T02:21:56;23.00;99.90
9808;DHT22;4943;52.550;13.462;2022-08-20T02:24:25;23.00;99.90
9808;DHT22;4943;52.550;13.462;2022-08-20T02:26:55;22.90;99.90
9808;DHT22;4943;52.550;13.462;2022-08-20T02:29:23;23.00;99.90
9808;DHT22;4943;52.550;13.462;2022-08-20T02:31:52;22.90;99.90
9808;DHT22;4943;52.550;13.462;2022-08-20T02:34:41;22.90;99.90
9808;DHT22;4943;52.550;13.462;2022-08-20T02:37:10;22.90;99.90
9808;DHT22;4943;52.550;13.462;2022-08-20T02:39:40;22.80;99.90
9808;DHT22;4943;52.550;13.462;2022-08-20T02:42:10;22.70;99.90
9808;DHT22;4943;52.550;13.462;2022-08-20T02:44:39;22.70;99.90
9808;DHT22;4943;52.550;13.462;2022-08-20T02:47:07;22.70;99.90
9808;DHT22;4943;52.550;13.462;2022-08-20T02:49:35;22.70;99.90
9808;DHT22;4943;52.550;13.462;2022-08-20T02:52:03;22.60;99.90
9808;DHT22;4943;52.550;13.462;2022-08-20T02:54:31;22.60;99.90
9808;DHT22;4943;52.550;13.462;2022-08-20T02:57:00;22.70;99.90
9808;DHT22;4943;52.550;13.462;2022-08-20T02:59:30;22.60;99.90
9808;DHT22;4943;52.550;13.462;2022-08-20T03:02:00;22.70;99.90
9808;DHT22;4943;52.550;13.462;2022-08-20T03:04:28;22.70;99.90
9808;DHT22;4943;52.550;13.462;2022-08-20T03:06:57;22.70;99.90
9808;DHT22;4943;52.550;13.462;2022-08-20T03:09:25;22.70;99.90
9808;DHT22;4943;52.550;13.462;2022-08-20T03:11:54;22.60;99.90
9808;DHT22;4943;52.550;13.462;2022-08-20T03:14:22;22.60;99.90
9808;DHT22;4943;52.550;13.462;2022-08-20T03:16:52;22.50;99.90
9808;DHT22;4943;52.550;13.462;2022-08-20T03:19:20;22.50;99.90
9808;DHT22;4943;52.550;13.462;2022-08-20T03:21:48;22.50;99.90
9808;DHT22;4943;52.550;13.462;2022-08-20T03:24:17;22.40;99.90
9808;DHT22;4943;52.550;13.462;2022-08-20T03:26:45;22.40;99.90
9808;DHT22;4943;52.550;13.462;2022-08-20T03:29:13;22.30;99.90
9808;DHT22;4943;52.550;13.462;2022-08-20T03:31:41;22.30;99.90
9808;DHT22;4943;52.550;13.462;2022-08-20T03:34:11;22.30;99.90
9808;DHT22;4943;52.550;13.462;2022-08-20T03:36:39;22.30;99.90
9808;DHT22;4943;52.550;13.462;2022-08-20T03:39:08;22.30;99.90
9808;DHT22;4943;52.550;13.462;2022-08-20T03:41:39;22.30;99.90
9808;DHT22;4943;52.550;13.462;2022-08-20T03:44:07;22.30;99.90
9808;DHT22;4943;52.550;13.462;2022-08-20T03:46:35;22.40;99.90
9808;DHT22;4943;52.550;13.462;2022-08-20T03:49:05;22.40;99.90
9808;DHT22;4943;52.550;13.462;2022-08-20T03:51:34;22.40;99.90
9808;DHT22;4943;52.550;13.462;2022-08-20T03:54:22;22.40;99.90
9808;DHT22;4943;52.550;13.462;2022-08-20T03:56:58;22.40;99.90
9808;DHT22;4943;52.550;13.462;2022-08-20T03:59:26;22.40;99.90
9808;DHT22;4943;52.550;13.462;2022-08-20T04:01:54;22.40;99.90
9808;DHT22;4943;52.550;13.462;2022-08-20T04:04:22;22.40;99.90
9808;DHT22;4943;52.550;13.462;2022-08-20T04:06:52;22.40;99.90
9808;DHT22;4943;52.550;13.462;2022-08-20T04:09:21;22.40;99.90
9808;DHT22;4943;52.550;13.462;2022-08-20T04:11:49;22.40;99.90
9808;DHT22;4943;52.550;13.462;2022-08-20T04:14:26;22.40;99.90
9808;DHT22;4943;52.550;13.462;2022-08-20T04:16:55;22.40;99.90
9808;DHT22;4943;52.550;13.462;2022-08-20T04:19:24;22.40;99.90
9808;DHT22;4943;52.550;13.462;2022-08-20T04:21:58;22.40;99.90
9808;DHT22;4943;52.550;13.462;2022-08-20T04:24:26;22.40;99.90
9808;DHT22;4943;52.550;13.462;2022-08-20T04:26:58;22.40;99.90
9808;DHT22;4943;52.550;13.462;2022-08-20T04:29:28;22.40;99.90
9808;DHT22;4943;52.550;13.462;2022-08-20T04:31:58;22.50;99.90
9808;DHT22;4943;52.550;13.462;2022-08-20T04:34:32;22.50;99.90
9808;DHT22;4943;52.550;13.462;2022-08-20T04:37:02;22.50;99.90
9808;DHT22;4943;52.550;13.462;2022-08-20T04:39:30;22.40;99.90
9808;DHT22;4943;52.550;13.462;2022-08-20T04:41:59;22.50;99.90
9808;DHT22;4943;52.550;13.462;2022-08-20T04:44:26;22.50;99.90
9808;DHT22;4943;52.550;13.462;2022-08-20T04:46:54;22.50;99.90
9808;DHT22;4943;52.550;13.462;2022-08-20T04:49:23;22.40;99.90
9808;DHT22;4943;52.550;13.462;2022-08-20T04:51:52;22.40;99.90
9808;DHT22;4943;52.550;13.462;2022-08-20T04:54:21;22.40;99.90
9808;DHT22;4943;52.550;13.462;2022-08-20T04:56:50;22.50;99.90
9808;DHT22;4943;52.550;13.462;2022-08-20T04:59:18;22.50;99.90
9808;DHT22;4943;52.550;13.462;2022-08-20T05:01:46;22.50;99.90
9808;DHT22;4943;52.550;13.462;2022-08-20T05:04:14;22.60;99.90
9808;DHT22;4943;52.550;13.462;2022-08-20T05:06:43;22.60;99.90
9808;DHT22;4943;52.550;13.462;2022-08-20T05:09:11;22.60;99.90
9808;DHT22;4943;52.550;13.462;2022-08-20T05:11:40;22.60;99.90
9808;DHT22;4943;52.550;13.462;2022-08-20T05:14:09;22.60;99.90
9808;DHT22;4943;52.550;13.462;2022-08-20T05:16:38;22.60;99.90
9808;DHT22;4943;52.550;13.462;2022-08-20T05:19:08;22.60;99.90
9808;DHT22;4943;52.550;13.462;2022-08-20T05:21:37;22.70;99.90
9808;DHT22;4943;52.550;13.462;2022-08-20T05:24:06;22.60;99.90
9808;DHT22;4943;52.550;13.462;2022-08-20T05:26:36;22.60;99.90
9808;DHT22;4943;52.550;13.462;2022-08-20T05:29:05;22.70;99.90
9808;DHT22;4943;52.550;13.462;2022-08-20T05:31:34;22.70;99.90
9808;DHT22;4943;52.550;13.462;2022-08-20T05:34:06;22.70;99.90
9808;DHT22;4943;52.550;13.462;2022-08-20T05:36:36;22.70;99.90
9808;DHT22;4943;52.550;13.462;2022-08-20T05:39:05;22.70;99.90
9808;DHT22;4943;52.550;13.462;2022-08-20T05:41:34;22.70;99.90
9808;DHT22;4943;52.550;13.462;2022-08-20T05:44:05;22.70;99.90
9808;DHT22;4943;52.550;13.462;2022-08-20T05:46:37;22.70;99.90
9808;DHT22;4943;52.550;13.462;2022-08-20T05:49:07;22.70;99.90
9808;DHT22;4943;52.550;13.462;2022-08-20T05:51:35;22.70;99.90
9808;DHT22;4943;52.550;13.462;2022-08-20T05:54:04;22.70;99.90
9808;DHT22;4943;52.550;13.462;2022-08-20T05:56:34;22.70;99.90
9808;DHT22;4943;52.550;13.462;2022-08-20T05:59:05;22.70;99.90
9808;DHT22;4943;52.550;13.462;2022-08-20T06:01:36;22.70;99.90
9808;DHT22;4943;52.550;13.462;2022-08-20T06:04:05;22.80;99.90
9808;DHT22;4943;52.550;13.462;2022-08-20T06:06:53;22.80;99.90
9808;DHT22;4943;52.550;13.462;2022-08-20T06:09:23;22.80;99.90
9808;DHT22;4943;52.550;13.462;2022-08-20T06:11:58;22.80;99.90
9808;DHT22;4943;52.550;13.462;2022-08-20T06:14:28;22.80;99.90
9808;DHT22;4943;52.550;13.462;2022-08-20T06:17:02;22.90;99.90
9808;DHT22;4943;52.550;13.462;2022-08-20T06:19:31;22.90;99.90
9808;DHT22;4943;52.550;13.462;2022-08-20T06:21:59;22.80;99.90
9808;DHT22;4943;52.550;13.462;2022-08-20T06:24:34;22.80;99.90
9808;DHT22;4943;52.550;13.462;2022-08-20T06:27:03;22.80;99.90
9808;DHT22;4943;52.550;13.462;2022-08-20T06:29:35;22.80;99.90
9808;DHT22;4943;52.550;13.462;2022-08-20T06:32:03;22.80;99.90
9808;DHT22;4943;52.550;13.462;2022-08-20T06:34:32;22.80;99.90
9808;DHT22;4943;52.550;13.462;2022-08-20T06:37:00;22.80;99.90
9808;DHT22;4943;52.550;13.462;2022-08-20T06:39:28;22.80;99.90
9808;DHT22;4943;52.550;13.462;2022-08-20T06:41:57;22.80;99.90
9808;DHT22;4943;52.550;13.462;2022-08-20T06:44:25;22.80;99.90
9808;DHT22;4943;52.550;13.462;2022-08-20T06:46:59;22.90;99.90
9808;DHT22;4943;52.550;13.462;2022-08-20T06:49:30;22.90;99.90
9808;DHT22;4943;52.550;13.462;2022-08-20T06:52:01;22.90;99.90
9808;DHT22;4943;52.550;13.462;2022-08-20T06:54:30;22.90;99.90
9808;DHT22;4943;52.550;13.462;2022-08-20T06:57:00;22.90;99.90
9808;DHT22;4943;52.550;13.462;2022-08-20T06:59:28;23.00;99.90
9808;DHT22;4943;52.550;13.462;2022-08-20T07:01:58;23.00;99.90
9808;DHT22;4943;52.550;13.462;2022-08-20T07:04:26;23.00;99.90
9808;DHT22;4943;52.550;13.462;2022-08-20T07:06:55;23.00;99.90
9808;DHT22;4943;52.550;13.462;2022-08-20T07:09:24;23.00;99.90
9808;DHT22;4943;52.550;13.462;2022-08-20T07:11:52;23.00;99.90
9808;DHT22;4943;52.550;13.462;2022-08-20T07:14:21;23.00;99.90
9808;DHT22;4943;52.550;13.462;2022-08-20T07:16:50;23.00;99.90
9808;DHT22;4943;52.550;13.462;2022-08-20T07:19:19;23.00;99.90
9808;DHT22;4943;52.550;13.462;2022-08-20T07:21:48;23.00;99.90
9808;DHT22;4943;52.550;13.462;2022-08-20T07:24:16;22.90;99.90
9808;DHT22;4943;52.550;13.462;2022-08-20T07:26:45;22.90;99.90
9808;DHT22;4943;52.550;13.462;2022-08-20T07:29:13;23.00;99.90
9808;DHT22;4943;52.550;13.462;2022-08-20T07:31:41;23.00;99.90
9808;DHT22;4943;52.550;13.462;2022-08-20T07:34:30;22.90;99.90
9808;DHT22;4943;52.550;13.462;2022-08-20T07:36:58;23.00;99.90
9808;DHT22;4943;52.550;13.462;2022-08-20T07:39:27;22.90;99.90
9808;DHT22;4943;52.550;13.462;2022-08-20T07:41:57;23.00;99.90
9808;DHT22;4943;52.550;13.462;2022-08-20T07:44:29;22.90;99.90
9808;DHT22;4943;52.550;13.462;2022-08-20T07:46:58;23.00;99.90
9808;DHT22;4943;52.550;13.462;2022-08-20T07:49:26;23.00;99.90
9808;DHT22;4943;52.550;13.462;2022-08-20T07:51:55;22.90;99.90
9808;DHT22;4943;52.550;13.462;2022-08-20T07:54:24;22.90;99.90
9808;DHT22;4943;52.550;13.462;2022-08-20T07:56:59;22.90;99.90
9808;DHT22;4943;52.550;13.462;2022-08-20T07:59:28;22.90;99.90
9808;DHT22;4943;52.550;13.462;2022-08-20T08:01:57;22.80;99.90
9808;DHT22;4943;52.550;13.462;2022-08-20T08:04:25;22.80;99.90
9808;DHT22;4943;52.550;13.462;2022-08-20T08:06:55;22.80;99.90
9808;DHT22;4943;52.550;13.462;2022-08-20T08:09:26;22.90;99.90
9808;DHT22;4943;52.550;13.462;2022-08-20T08:11:56;22.90;99.90
9808;DHT22;4943;52.550;13.462;2022-08-20T08:14:27;22.90;99.90
9808;DHT22;4943;52.550;13.462;2022-08-20T08:17:00;23.00;99.90
9808;DHT22;4943;52.550;13.462;2022-08-20T08:19:32;23.10;99.90
9808;DHT22;4943;52.550;13.462;2022-08-20T08:22:07;23.00;99.90
9808;DHT22;4943;52.550;13.462;2022-08-20T08:24:37;23.00;99.90
9808;DHT22;4943;52.550;13.462;2022-08-20T08:27:05;23.00;99.90
9808;DHT22;4943;52.550;13.462;2022-08-20T08:29:36;23.00;99.90
9808;DHT22;4943;52.550;13.462;2022-08-20T08:32:06;23.10;99.90
9808;DHT22;4943;52.550;13.462;2022-08-20T08:34:35;23.10;99.90
9808;DHT22;4943;52.550;13.462;2022-08-20T08:37:04;23.10;99.90
9808;DHT22;4943;52.550;13.462;2022-08-20T08:39:34;23.10;99.90
9808;DHT22;4943;52.550;13.462;2022-08-20T08:42:16;23.10;99.90
9808;DHT22;4943;52.550;13.462;2022-08-20T08:44:47;23.10;99.90
9808;DHT22;4943;52.550;13.462;2022-08-20T08:47:27;23.10;99.90
9808;DHT22;4943;52.550;13.462;2022-08-20T08:49:56;23.10;99.90
9808;DHT22;4943;52.550;13.462;2022-08-20T08:52:28;23.10;99.90
9808;DHT22;4943;52.550;13.462;2022-08-20T08:55:00;23.20;99.90
9808;DHT22;4943;52.550;13.462;2022-08-20T08:57:29;23.20;99.90
9808;DHT22;4943;52.550;13.462;2022-08-20T09:00:00;23.30;99.90
9808;DHT22;4943;52.550;13.462;2022-08-20T09:02:31;23.40;99.90
9808;DHT22;4943;52.550;13.462;2022-08-20T09:05:03;23.50;99.90
9808;DHT22;4943;52.550;13.462;2022-08-20T09:07:48;23.60;99.90
9808;DHT22;4943;52.550;13.462;2022-08-20T09:10:22;23.80;99.90
9808;DHT22;4943;52.550;13.462;2022-08-20T09:12:50;23.90;99.90
9808;DHT22;4943;52.550;13.462;2022-08-20T09:15:19;24.00;99.90
9808;DHT22;4943;52.550;13.462;2022-08-20T09:17:48;24.20;99.90
9808;DHT22;4943;52.550;13.462;2022-08-20T09:20:16;24.20;99.90
9808;DHT22;4943;52.550;13.462;2022-08-20T09:22:48;24.20;99.90
9808;DHT22;4943;52.550;13.462;2022-08-20T09:25:18;24.20;99.90
9808;DHT22;4943;52.550;13.462;2022-08-20T09:27:48;24.20;99.90
9808;DHT22;4943;52.550;13.462;2022-08-20T09:30:17;24.20;99.90
9808;DHT22;4943;52.550;13.462;2022-08-20T09:32:46;24.20;99.90
9808;DHT22;4943;52.550;13.462;2022-08-20T09:35:14;24.20;99.90
9808;DHT22;4943;52.550;13.462;2022-08-20T09:37:42;24.20;99.90
9808;DHT22;4943;52.550;13.462;2022-08-20T09:40:16;24.30;99.90
9808;DHT22;4943;52.550;13.462;2022-08-20T09:42:49;24.30;99.90
9808;DHT22;4943;52.550;13.462;2022-08-20T09:45:18;24.40;99.90
9808;DHT22;4943;52.550;13.462;2022-08-20T09:47:46;24.40;99.90
9808;DHT22;4943;52.550;13.462;2022-08-20T09:50:22;24.40;99.90
9808;DHT22;4943;52.550;13.462;2022-08-20T09:52:52;24.40;99.90
9808;DHT22;4943;52.550;13.462;2022-08-20T09:55:25;24.40;99.90
9808;DHT22;4943;52.550;13.462;2022-08-20T09:57:57;24.50;99.90
9808;DHT22;4943;52.550;13.462;2022-08-20T10:00:26;24.60;99.90
9808;DHT22;4943;52.550;13.462;2022-08-20T10:02:54;24.60;99.90
9808;DHT22;4943;52.550;13.462;2022-08-20T10:05:22;24.70;99.90
9808;DHT22;4943;52.550;13.462;2022-08-20T10:07:51;24.70;99.90
9808;DHT22;4943;52.550;13.462;2022-08-20T10:10:20;24.70;99.90
9808;DHT22;4943;52.550;13.462;2022-08-20T10:12:48;24.70;99.90
9808;DHT22;4943;52.550;13.462;2022-08-20T10:15:22;24.60;99.90
9808;DHT22;4943;52.550;13.462;2022-08-20T10:17:50;24.70;99.90
9808;DHT22;4943;52.550;13.462;2022-08-20T10:20:18;24.80;99.90
9808;DHT22;4943;52.550;13.462;2022-08-20T10:22:46;24.80;99.90
9808;DHT22;4943;52.550;13.462;2022-08-20T10:25:14;24.90;99.90
9808;DHT22;4943;52.550;13.462;2022-08-20T10:27:43;24.90;99.90
9808;DHT22;4943;52.550;13.462;2022-08-20T10:30:12;25.10;99.90
9808;DHT22;4943;52.550;13.462;2022-08-20T10:32:42;25.20;99.90
9808;DHT22;4943;52.550;13.462;2022-08-20T10:35:10;25.20;99.90
9808;DHT22;4943;52.550;13.462;2022-08-20T10:37:38;25.20;99.90
9808;DHT22;4943;52.550;13.462;2022-08-20T10:40:07;25.30;99.90
9808;DHT22;4943;52.550;13.462;2022-08-20T10:42:37;25.30;99.90
9808;DHT22;4943;52.550;13.462;2022-08-20T10:45:09;25.30;99.90
9808;DHT22;4943;52.550;13.462;2022-08-20T10:47:37;25.30;99.90
9808;DHT22;4943;52.550;13.462;2022-08-20T10:50:10;25.40;99.90
9808;DHT22;4943;52.550;13.462;2022-08-20T10:52:39;25.50;99.90
9808;DHT22;4943;52.550;13.462;2022-08-20T10:55:08;25.50;99.90
9808;DHT22;4943;52.550;13.462;2022-08-20T10:57:38;25.60;99.90
9808;DHT22;4943;52.550;13.462;2022-08-20T11:00:07;25.60;99.90
9808;DHT22;4943;52.550;13.462;2022-08-20T11:02:36;25.60;99.90
9808;DHT22;4943;52.550;13.462;2022-08-20T11:05:08;25.70;99.90
9808;DHT22;4943;52.550;13.462;2022-08-20T11:07:38;25.70;99.90
9808;DHT22;4943;52.550;13.462;2022-08-20T11:10:27;25.70;99.90
9808;DHT22;4943;52.550;13.462;2022-08-20T11:12:56;25.60;99.90
9808;DHT22;4943;52.550;13.462;2022-08-20T11:15:24;25.70;99.90
9808;DHT22;4943;52.550;13.462;2022-08-20T11:17:52;25.70;99.90
9808;DHT22;4943;52.550;13.462;2022-08-20T11:20:23;25.80;99.90
9808;DHT22;4943;52.550;13.462;2022-08-20T11:22:52;25.80;99.90
9808;DHT22;4943;52.550;13.462;2022-08-20T11:25:21;25.90;99.90
9808;DHT22;4943;52.550;13.462;2022-08-20T11:27:50;25.90;99.90
9808;DHT22;4943;52.550;13.462;2022-08-20T11:30:22;26.00;99.90
9808;DHT22;4943;52.550;13.462;2022-08-20T11:32:51;25.90;99.90
9808;DHT22;4943;52.550;13.462;2022-08-20T11:35:19;25.90;99.90
9808;DHT22;4943;52.550;13.462;2022-08-20T11:38:11;25.90;99.90
9808;DHT22;4943;52.550;13.462;2022-08-20T11:40:39;25.80;99.90
9808;DHT22;4943;52.550;13.462;2022-08-20T11:43:07;25.80;99.90
9808;DHT22;4943;52.550;13.462;2022-08-20T11:45:41;25.80;99.90
9808;DHT22;4943;52.550;13.462;2022-08-20T11:48:09;25.70;99.90
9808;DHT22;4943;52.550;13.462;2022-08-20T11:50:37;25.60;99.90
9808;DHT22;4943;52.550;13.462;2022-08-20T11:53:05;25.60;99.90
9808;DHT22;4943;52.550;13.462;2022-08-20T11:55:35;25.50;99.90
9808;DHT22;4943;52.550;13.462;2022-08-20T11:58:05;25.50;99.90
9808;DHT22;4943;52.550;13.462;2022-08-20T12:00:34;25.50;99.90
9808;DHT22;4943;52.550;13.462;2022-08-20T12:03:03;25.40;99.90
9808;DHT22;4943;52.550;13.462;2022-08-20T12:05:35;25.40;99.90
9808;DHT22;4943;52.550;13.462;2022-08-20T12:08:04;25.30;99.90
9808;DHT22;4943;52.550;13.462;2022-08-20T12:10:32;25.40;99.90
9808;DHT22;4943;52.550;13.462;2022-08-20T12:13:02;25.40;99.90
9808;DHT22;4943;52.550;13.462;2022-08-20T12:15:31;25.40;99.90
9808;DHT22;4943;52.550;13.462;2022-08-20T12:17:59;25.50;99.90
9808;DHT22;4943;52.550;13.462;2022-08-20T12:20:28;25.50;99.90
9808;DHT22;4943;52.550;13.462;2022-08-20T12:22:56;25.60;99.90
9808;DHT22;4943;52.550;13.462;2022-08-20T12:25:25;25.60;99.90
9808;DHT22;4943;52.550;13.462;2022-08-20T12:27:53;25.60;99.90
9808;DHT22;4943;52.550;13.462;2022-08-20T12:30:23;25.60;99.90
9808;DHT22;4943;52.550;13.462;2022-08-20T12:32:52;25.70;99.90
9808;DHT22;4943;52.550;13.462;2022-08-20T12:35:20;25.70;99.90
9808;DHT22;4943;52.550;13.462;2022-08-20T12:37:48;25.80;99.90
9808;DHT22;4943;52.550;13.462;2022-08-20T12:40:19;25.80;99.90
9808;DHT22;4943;52.550;13.462;2022-08-20T12:42:58;25.80;99.90
9808;DHT22;4943;52.550;13.462;2022-08-20T12:45:28;25.70;99.90
9808;DHT22;4943;52.550;13.462;2022-08-20T12:48:00;25.70;99.90
9808;DHT22;4943;52.550;13.462;2022-08-20T12:50:29;25.70;99.90
9808;DHT22;4943;52.550;13.462;2022-08-20T12:52:58;25.70;99.90
9808;DHT22;4943;52.550;13.462;2022-08-20T12:55:26;25.80;99.90
9808;DHT22;4943;52.550;13.462;2022-08-20T12:57:57;25.80;99.90
9808;DHT22;4943;52.550;13.462;2022-08-20T13:00:30;25.80;99.90
9808;DHT22;4943;52.550;13.462;2022-08-20T13:03:00;25.90;99.90
9808;DHT22;4943;52.550;13.462;2022-08-20T13:05:29;25.90;99.90
9808;DHT22;4943;52.550;13.462;2022-08-20T13:07:58;25.90;99.90
9808;DHT22;4943;52.550;13.462;2022-08-20T13:10:29;25.80;99.90
9808;DHT22;4943;52.550;13.462;2022-08-20T13:12:58;25.70;99.90
9808;DHT22;4943;52.550;13.462;2022-08-20T13:15:29;25.70;99.90
9808;DHT22;4943;52.550;13.462;2022-08-20T13:18:00;25.60;99.90
9808;DHT22;4943;52.550;13.462;2022-08-20T13:20:30;25.50;99.90
9808;DHT22;4943;52.550;13.462;2022-08-20T13:23:01;25.50;99.90
9808;DHT22;4943;52.550;13.462;2022-08-20T13:25:30;25.50;99.90
9808;DHT22;4943;52.550;13.462;2022-08-20T13:28:00;25.40;99.90
9808;DHT22;4943;52.550;13.462;2022-08-20T13:30:33;25.30;99.90
9808;DHT22;4943;52.550;13.462;2022-08-20T13:33:03;25.30;99.90
9808;DHT22;4943;52.550;13.462;2022-08-20T13:35:31;25.20;99.90
9808;DHT22;4943;52.550;13.462;2022-08-20T13:37:59;25.20;99.90
9808;DHT22;4943;52.550;13.462;2022-08-20T13:40:27;25.10;99.90
9808;DHT22;4943;52.550;13.462;2022-08-20T13:42:56;25.00;99.90
9808;DHT22;4943;52.550;13.462;2022-08-20T13:45:26;25.00;99.90
9808;DHT22;4943;52.550;13.462;2022-08-20T13:47:56;24.90;99.90
9808;DHT22;4943;52.550;13.462;2022-08-20T13:50:25;24.80;99.90
9808;DHT22;4943;52.550;13.462;2022-08-20T13:52:53;24.80;99.90
9808;DHT22;4943;52.550;13.462;2022-08-20T13:55:24;24.80;99.90
9808;DHT22;4943;52.550;13.462;2022-08-20T13:57:55;24.70;99.90
9808;DHT22;4943;52.550;13.462;2022-08-20T14:00:26;24.60;99.90
9808;DHT22;4943;52.550;13.462;2022-08-20T14:02:59;24.60;99.90
9808;DHT22;4943;52.550;13.462;2022-08-20T14:05:28;24.50;99.90
9808;DHT22;4943;52.550;13.462;2022-08-20T14:08:04;24.50;99.90
9808;DHT22;4943;52.550;13.462;2022-08-20T14:10:33;24.40;99.90
9808;DHT22;4943;52.550;13.462;2022-08-20T14:13:02;24.30;99.90
9808;DHT22;4943;52.550;13.462;2022-08-20T14:15:31;24.30;99.90
9808;DHT22;4943;52.550;13.462;2022-08-20T14:18:01;24.20;99.90
9808;DHT22;4943;52.550;13.462;2022-08-20T14:20:30;24.20;99.90
9808;DHT22;4943;52.550;13.462;2022-08-20T14:22:59;24.20;99.90
9808;DHT22;4943;52.550;13.462;2022-08-20T14:25:30;24.30;99.90
9808;DHT22;4943;52.550;13.462;2022-08-20T14:28:08;24.30;99.90
9808;DHT22;4943;52.550;13.462;2022-08-20T14:30:36;24.30;99.90
9808;DHT22;4943;52.550;13.462;2022-08-20T14:33:06;24.40;99.90
9808;DHT22;4943;52.550;13.462;2022-08-20T14:35:34;24.50;99.90
9808;DHT22;4943;52.550;13.462;2022-08-20T14:38:03;24.50;99.90
9808;DHT22;4943;52.550;13.462;2022-08-20T14:40:31;24.60;99.90
9808;DHT22;4943;52.550;13.462;2022-08-20T14:43:00;24.60;99.90
9808;DHT22;4943;52.550;13.462;2022-08-20T14:45:29;24.70;99.90
9808;DHT22;4943;52.550;13.462;2022-08-20T14:47:57;24.80;99.90
9808;DHT22;4943;52.550;13.462;2022-08-20T14:50:29;24.80;99.90
9808;DHT22;4943;52.550;13.462;2022-08-20T14:52:58;24.80;99.90
9808;DHT22;4943;52.550;13.462;2022-08-20T14:55:29;24.90;99.90
9808;DHT22;4943;52.550;13.462;2022-08-20T14:57:58;25.00;99.90
9808;DHT22;4943;52.550;13.462;2022-08-20T15:00:29;25.00;99.90
9808;DHT22;4943;52.550;13.462;2022-08-20T15:02:59;25.00;99.90
9808;DHT22;4943;52.550;13.462;2022-08-20T15:05:29;25.00;99.90
9808;DHT22;4943;52.550;13.462;2022-08-20T15:07:58;25.00;99.90
9808;DHT22;4943;52.550;13.462;2022-08-20T15:10:28;24.90;99.90
9808;DHT22;4943;52.550;13.462;2022-08-20T15:12:57;24.90;99.90
9808;DHT22;4943;52.550;13.462;2022-08-20T15:15:25;24.90;99.90
9808;DHT22;4943;52.550;13.462;2022-08-20T15:17:56;24.80;99.90
9808;DHT22;4943;52.550;13.462;2022-08-20T15:20:29;24.80;99.90
9808;DHT22;4943;52.550;13.462;2022-08-20T15:22:58;24.80;99.90
9808;DHT22;4943;52.550;13.462;2022-08-20T15:25:29;24.80;99.90
9808;DHT22;4943;52.550;13.462;2022-08-20T15:28:05;24.80;99.90
9808;DHT22;4943;52.550;13.462;2022-08-20T15:30:35;24.80;99.90
9808;DHT22;4943;52.550;13.462;2022-08-20T15:33:03;24.70;99.90
9808;DHT22;4943;52.550;13.462;2022-08-20T15:35:33;24.70;99.90
9808;DHT22;4943;52.550;13.462;2022-08-20T15:38:01;24.60;99.90
9808;DHT22;4943;52.550;13.462;2022-08-20T15:40:31;24.60;99.90
9808;DHT22;4943;52.550;13.462;2022-08-20T15:43:01;24.50;99.90
9808;DHT22;4943;52.550;13.462;2022-08-20T15:45:31;24.50;99.90
9808;DHT22;4943;52.550;13.462;2022-08-20T15:48:06;24.50;99.90
9808;DHT22;4943;52.550;13.462;2022-08-20T15:50:56;24.40;99.90
9808;DHT22;4943;52.550;13.462;2022-08-20T15:53:32;24.40;99.90
9808;DHT22;4943;52.550;13.462;2022-08-20T15:56:07;24.40;99.90
9808;DHT22;4943;52.550;13.462;2022-08-20T15:58:43;24.30;99.90
9808;DHT22;4943;52.550;13.462;2022-08-20T16:01:23;24.30;99.90
9808;DHT22;4943;52.550;13.462;2022-08-20T16:04:23;24.30;99.90